Terminal Aerodrome Forecast
Issued by NWS

Home | Current Version | Previous Version | Text Only | Print | Product List | Glossary On
Versions: 1 2 3 4 5 6 7 8 9 10 11 12 13 14 15 16 17 18 19 20 21 22
000
FTUS43 KABR 160900 AAB
TAFMBG
TAF AMD
KMBG 160941Z 1610/1706 07024G30KT 3SM -SN OVC040
      TEMPO 1610/1612 P6SM -FZRA BKN025
     FM161200 03020G28KT 5SM -SN OVC025
     FM161600 02015G23KT P6SM OVC030
     FM170000 05011KT P6SM BKN035 OVC100=

USA.gov is the U.S. government's official web portal to all federal, state and local government web resources and services.